Spruce Pine, North Carolina
Current Conditions -  °F | °C
As of 4:55 AM on Wednesday 26 Nov 2014 (Local Time) from KMRN Reporting Station
Moderate Rain Moderate Rain  
Wind Chill: 43°   Ceiling: 6500
Heat Index: 43°   Visibility: 5mi
Dew Point: 43°   Wind: 0mph
Humidity: 100%   Direction: NA
Pressure: 29.99"   Gusts: NA
Location:  35.92°N, 82.06°W
Report Text: KMRN 260955Z AUTO 00000KT 5SM RA OVC065 06/06 A2999 RMK AO2 P0005 T00600060
Loading
Personal Weather Stations






























Interactive Weather Map New forecast layout! Learn more

10-Day Weather Forecast

Advertisements
Track Severe Weather on mobile